Time,TemperatureF,DewpointF,PressureIn,WindDirection,WindDirectionDegrees,WindSpeedMPH,WindSpeedGustMPH,Humidity,HourlyPrecipIn,Conditions,Clouds,dailyrainin,SoftwareType,DateUTC
2013-01-02 00:02:00,59.0,58.0,29.95,WNW,303,6.0,8.0,96,0.02,,,0.00,weatherlink.com 1.10,2013-01-02 06:02:00,
2013-01-02 00:17:00,58.4,57.0,29.95,North,1,5.0,7.0,96,0.01,,,0.00,weatherlink.com 1.10,2013-01-02 06:17:00,
2013-01-02 00:32:00,57.7,57.0,29.95,NNW,348,8.0,10.0,96,0.00,,,0.00,weatherlink.com 1.10,2013-01-02 06:32:00,
2013-01-02 00:47:00,57.2,56.0,29.95,North,351,3.0,9.0,96,0.00,,,0.00,weatherlink.com 1.10,2013-01-02 06:47:00,
2013-01-02 01:02:00,56.9,56.0,29.95,West,269,0.0,8.0,96,0.00,,,0.00,weatherlink.com 1.10,2013-01-02 07:02:00,
2013-01-02 01:17:00,56.6,56.0,29.96,NE,43,0.0,5.0,96,0.00,,,0.00,weatherlink.com 1.10,2013-01-02 07:17:00,
2013-01-02 01:32:00,56.3,56.0,29.97,NW,319,2.0,4.0,97,0.00,,,0.00,weatherlink.com 1.10,2013-01-02 07:32:00,
2013-01-02 01:47:00,55.8,55.0,29.96,NNW,328,3.0,8.0,96,0.00,,,0.00,weatherlink.com 1.10,2013-01-02 07:47:00,
2013-01-02 02:02:00,55.6,55.0,29.97,NNW,343,3.0,9.0,96,0.00,,,0.00,weatherlink.com 1.10,2013-01-02 08:02:00,
2013-01-02 02:17:00,55.5,54.0,29.98,NNE,18,4.0,6.0,96,0.00,,,0.00,weatherlink.com 1.10,2013-01-02 08:17:00,
2013-01-02 02:32:00,55.2,54.0,29.98,NNW,333,5.0,8.0,97,0.00,,,0.00,weatherlink.com 1.10,2013-01-02 08:32:00,
2013-01-02 02:47:00,54.8,54.0,29.98,WNW,286,0.0,3.0,97,0.00,,,0.00,weatherlink.com 1.10,2013-01-02 08:47:00,
2013-01-02 03:02:00,54.5,54.0,29.98,NNW,345,3.0,8.0,97,0.00,,,0.00,weatherlink.com 1.10,2013-01-02 09:02:00,
2013-01-02 03:17:00,54.5,54.0,29.99,NNW,343,0.0,2.0,97,0.00,,,0.00,weatherlink.com 1.10,2013-01-02 09:17:00,
2013-01-02 03:32:00,54.4,54.0,29.99,NNE,26,0.0,4.0,97,0.00,,,0.00,weatherlink.com 1.10,2013-01-02 09:32:00,
2013-01-02 03:47:00,54.1,53.0,29.99,NNE,13,2.0,7.0,97,0.00,,,0.00,weatherlink.com 1.10,2013-01-02 09:47:00,
2013-01-02 04:02:00,54.0,53.0,29.99,SSW,204,3.0,8.0,97,0.00,,,0.00,weatherlink.com 1.10,2013-01-02 10:02:00,
2013-01-02 04:17:00,53.4,52.0,29.99,NW,318,3.0,11.0,96,0.00,,,0.00,weatherlink.com 1.10,2013-01-02 10:17:00,
2013-01-02 04:32:00,53.0,52.0,30.00,North,3,1.0,7.0,96,0.00,,,0.00,weatherlink.com 1.10,2013-01-02 10:32:00,
2013-01-02 04:47:00,52.7,52.0,29.99,NNE,18,3.0,9.0,96,0.00,,,0.00,weatherlink.com 1.10,2013-01-02 10:47:00,
2013-01-02 05:02:00,52.5,51.0,30.01,NW,309,4.0,9.0,96,0.00,,,0.00,weatherlink.com 1.10,2013-01-02 11:02:00,
2013-01-02 05:18:00,52.3,51.0,30.02,North,4,5.0,9.0,96,0.00,,,0.00,weatherlink.com 1.10,2013-01-02 11:18:00,
2013-01-02 05:33:00,52.0,51.0,30.01,NW,311,7.0,10.0,95,0.00,,,0.00,weatherlink.com 1.10,2013-01-02 11:33:00,
2013-01-02 05:48:00,51.8,51.0,30.02,NNW,342,6.0,11.0,96,0.00,,,0.00,weatherlink.com 1.10,2013-01-02 11:48:00,
2013-01-02 06:03:00,51.7,50.0,30.02,NNW,337,2.0,10.0,95,0.00,,,0.00,weatherlink.com 1.10,2013-01-02 12:03:00,
2013-01-02 06:18:00,51.6,50.0,30.02,North,11,3.0,7.0,95,0.00,,,0.00,weatherlink.com 1.10,2013-01-02 12:18:00,
2013-01-02 06:33:00,51.5,50.0,30.02,NNW,347,3.0,5.0,96,0.00,,,0.00,weatherlink.com 1.10,2013-01-02 12:33:00,
2013-01-02 06:48:00,51.5,50.0,30.02,North,349,1.0,3.0,96,0.00,,,0.00,weatherlink.com 1.10,2013-01-02 12:48:00,
2013-01-02 07:03:00,51.6,51.0,30.03,NE,38,3.0,4.0,96,0.00,,,0.00,weatherlink.com 1.10,2013-01-02 13:03:00,
2013-01-02 07:18:00,51.6,51.0,30.04,NNW,345,2.0,5.0,96,0.00,,,0.00,weatherlink.com 1.10,2013-01-02 13:18:00,
2013-01-02 07:33:00,51.4,50.0,30.05,NW,326,1.0,4.0,96,0.00,,,0.00,weatherlink.com 1.10,2013-01-02 13:33:00,
2013-01-02 07:48:00,51.4,50.0,30.07,North,360,2.0,8.0,95,0.00,,,0.00,weatherlink.com 1.10,2013-01-02 13:48:00,
2013-01-02 08:03:00,51.5,50.0,30.06,NNW,336,2.0,6.0,95,0.00,,,0.00,weatherlink.com 1.10,2013-01-02 14:03:00,
2013-01-02 08:18:00,51.7,50.0,30.06,NNW,328,10.0,10.0,94,0.00,,,0.00,weatherlink.com 1.10,2013-01-02 14:18:00,
2013-01-02 08:33:00,52.1,50.0,30.07,North,352,4.0,6.0,93,0.00,,,0.00,weatherlink.com 1.10,2013-01-02 14:33:00,
2013-01-02 08:48:00,51.6,49.0,30.08,NW,315,6.0,9.0,92,0.00,,,0.00,weatherlink.com 1.10,2013-01-02 14:48:00,
2013-01-02 09:03:00,51.8,49.0,30.08,North,10,4.0,8.0,91,0.00,,,0.00,weatherlink.com 1.10,2013-01-02 15:03:00,
2013-01-02 09:18:00,51.7,49.0,30.08,WNW,287,2.0,10.0,91,0.00,,,0.00,weatherlink.com 1.10,2013-01-02 15:18:00,
2013-01-02 09:33:00,52.1,49.0,30.08,NW,318,4.0,9.0,90,0.00,,,0.00,weatherlink.com 1.10,2013-01-02 15:33:00,
2013-01-02 09:48:00,52.5,49.0,30.09,NNW,328,8.0,8.0,87,0.00,,,0.00,weatherlink.com 1.10,2013-01-02 15:48:00,
2013-01-02 10:03:00,53.9,50.0,30.09,WNW,293,8.0,8.0,86,0.00,,,0.00,weatherlink.com 1.10,2013-01-02 16:03:00,
2013-01-02 10:18:00,53.7,49.0,30.09,NNW,332,1.0,9.0,84,0.00,,,0.00,weatherlink.com 1.10,2013-01-02 16:18:00,
2013-01-02 10:33:00,54.2,49.0,30.09,NW,316,3.0,7.0,83,0.00,,,0.00,weatherlink.com 1.10,2013-01-02 16:33:00,
2013-01-02 10:48:00,55.5,50.0,30.09,NNW,333,6.0,7.0,81,0.00,,,0.00,weatherlink.com 1.10,2013-01-02 16:48:00,
2013-01-02 11:03:00,55.3,49.0,30.07,NNW,346,5.0,9.0,79,0.00,,,0.00,weatherlink.com 1.10,2013-01-02 17:03:00,
2013-01-02 11:18:00,55.3,49.0,30.07,NNE,30,3.0,5.0,80,0.00,,,0.00,weatherlink.com 1.10,2013-01-02 17:18:00,
2013-01-02 11:33:00,56.2,49.0,30.07,NNE,28,1.0,4.0,78,0.00,,,0.00,weatherlink.com 1.10,2013-01-02 17:33:00,
2013-01-02 11:48:00,57.2,49.0,30.06,NNW,333,3.0,10.0,75,0.00,,,0.00,weatherlink.com 1.10,2013-01-02 17:48:00,
2013-01-02 12:03:00,58.2,50.0,30.05,East,81,1.0,-999.0,74,-99.99,,,0.00,weatherlink.com 1.10,2013-01-02 18:03:00,
2013-01-02 12:18:00,58.1,49.0,30.05,NW,323,5.0,10.0,71,0.00,,,0.00,weatherlink.com 1.10,2013-01-02 18:18:00,
2013-01-02 12:33:00,58.7,49.0,30.04,North,353,2.0,6.0,71,0.00,,,0.00,weatherlink.com 1.10,2013-01-02 18:33:00,
2013-01-02 12:48:00,59.0,49.0,30.03,WNW,284,1.0,8.0,70,0.00,,,0.00,weatherlink.com 1.10,2013-01-02 18:48:00,
2013-01-02 13:03:00,59.4,50.0,30.02,NE,40,2.0,5.0,70,0.00,,,0.00,weatherlink.com 1.10,2013-01-02 19:03:00,
2013-01-02 13:18:00,59.6,50.0,30.02,NNW,328,1.0,6.0,70,0.00,,,0.00,weatherlink.com 1.10,2013-01-02 19:18:00,
2013-01-02 13:33:00,59.6,50.0,30.02,NE,52,1.0,5.0,70,0.00,,,0.00,weatherlink.com 1.10,2013-01-02 19:33:00,
2013-01-02 13:48:00,59.7,50.0,30.02,NE,34,5.0,7.0,71,0.00,,,0.00,weatherlink.com 1.10,2013-01-02 19:48:00,
2013-01-02 14:03:00,59.3,50.0,30.03,NE,56,2.0,8.0,72,0.00,,,0.00,weatherlink.com 1.10,2013-01-02 20:03:00,
2013-01-02 14:18:00,59.2,49.0,30.03,NNW,337,5.0,6.0,70,0.00,,,0.00,weatherlink.com 1.10,2013-01-02 20:18:00,
2013-01-02 14:33:00,58.9,50.0,30.03,NW,314,5.0,8.0,72,0.00,,,0.00,weatherlink.com 1.10,2013-01-02 20:33:00,
2013-01-02 15:03:00,58.2,50.0,30.04,NW,308,1.0,7.0,73,0.00,,,0.00,weatherlink.com 1.10,2013-01-02 21:03:00,
2013-01-02 15:18:00,57.6,50.0,30.04,NNW,333,2.0,8.0,75,0.00,,,0.00,weatherlink.com 1.10,2013-01-02 21:18:00,
2013-01-02 15:33:00,57.0,50.0,30.04,NNW,328,0.0,6.0,76,0.00,,,0.00,weatherlink.com 1.10,2013-01-02 21:33:00,
2013-01-02 15:48:00,56.6,49.0,30.04,NNW,345,2.0,6.0,76,0.00,,,0.00,weatherlink.com 1.10,2013-01-02 21:48:00,
2013-01-02 16:03:00,55.8,49.0,30.04,NE,38,3.0,8.0,78,0.00,,,0.00,weatherlink.com 1.10,2013-01-02 22:03:00,
2013-01-02 16:18:00,55.3,49.0,30.04,WNW,303,4.0,6.0,79,0.00,,,0.00,weatherlink.com 1.10,2013-01-02 22:18:00,
2013-01-02 16:33:00,54.6,49.0,30.05,NE,48,2.0,6.0,80,0.00,,,0.00,weatherlink.com 1.10,2013-01-02 22:33:00,
2013-01-02 16:48:00,53.9,48.0,30.05,North,353,4.0,6.0,81,0.00,,,0.00,weatherlink.com 1.10,2013-01-02 22:48:00,
2013-01-02 17:03:00,53.3,48.0,30.07,NW,323,3.0,7.0,82,0.00,,,0.00,weatherlink.com 1.10,2013-01-02 23:03:00,
2013-01-02 17:18:00,52.8,47.0,30.07,NNW,345,1.0,7.0,82,0.00,,,0.00,weatherlink.com 1.10,2013-01-02 23:18:00,
2013-01-02 17:33:00,52.4,48.0,30.09,NW,308,0.0,8.0,84,0.00,,,0.00,weatherlink.com 1.10,2013-01-02 23:33:00,
2013-01-02 17:48:00,51.8,47.0,30.11,WNW,285,0.0,5.0,84,0.00,,,0.00,weatherlink.com 1.10,2013-01-02 23:48:00,
2013-01-02 18:04:00,51.2,47.0,30.11,WNW,294,4.0,8.0,84,0.00,,,0.00,weatherlink.com 1.10,2013-01-03 00:04:00,
2013-01-02 18:19:00,50.8,47.0,30.11,NE,45,6.0,7.0,86,0.00,,,0.00,weatherlink.com 1.10,2013-01-03 00:19:00,
2013-01-02 18:34:00,49.9,47.0,30.13,NNW,345,2.0,10.0,89,0.00,,,0.00,weatherlink.com 1.10,2013-01-03 00:34:00,
2013-01-02 18:49:00,49.5,47.0,30.13,NNW,330,0.0,7.0,90,0.00,,,0.00,weatherlink.com 1.10,2013-01-03 00:49:00,
2013-01-02 19:04:00,49.2,46.0,30.12,NW,325,4.0,7.0,89,0.00,,,0.00,weatherlink.com 1.10,2013-01-03 01:04:00,
2013-01-02 19:19:00,49.0,46.0,30.11,NNE,15,0.0,7.0,90,0.00,,,0.00,weatherlink.com 1.10,2013-01-03 01:19:00,
2013-01-02 19:34:00,48.9,46.0,30.13,NNW,340,1.0,5.0,90,0.00,,,0.00,weatherlink.com 1.10,2013-01-03 01:34:00,
2013-01-02 19:49:00,48.7,46.0,30.12,North,6,3.0,7.0,90,0.00,,,0.00,weatherlink.com 1.10,2013-01-03 01:49:00,
2013-01-02 20:04:00,48.5,46.0,30.13,North,360,1.0,8.0,91,0.00,,,0.00,weatherlink.com 1.10,2013-01-03 02:04:00,
2013-01-02 20:19:00,48.3,46.0,30.12,North,11,3.0,8.0,91,0.00,,,0.00,weatherlink.com 1.10,2013-01-03 02:19:00,
2013-01-02 20:34:00,48.0,45.0,30.13,NNW,337,3.0,5.0,90,0.00,,,0.00,weatherlink.com 1.10,2013-01-03 02:34:00,
2013-01-02 20:49:00,47.9,45.0,30.13,North,360,2.0,7.0,90,0.00,,,0.00,weatherlink.com 1.10,2013-01-03 02:49:00,
2013-01-02 21:04:00,47.6,45.0,30.12,NNW,345,3.0,8.0,89,0.00,,,0.00,weatherlink.com 1.10,2013-01-03 03:04:00,
2013-01-02 21:19:00,47.5,45.0,30.14,WNW,301,4.0,7.0,89,0.00,,,0.00,weatherlink.com 1.10,2013-01-03 03:19:00,
2013-01-02 21:49:00,47.1,44.0,30.14,NNE,18,2.0,6.0,89,0.00,,,0.00,weatherlink.com 1.10,2013-01-03 03:49:00,
2013-01-02 22:04:00,47.0,44.0,30.14,NNW,343,3.0,8.0,90,0.00,,,0.00,weatherlink.com 1.10,2013-01-03 04:04:00,
2013-01-02 22:19:00,46.8,44.0,30.14,NNW,345,2.0,7.0,90,0.00,,,0.00,weatherlink.com 1.10,2013-01-03 04:19:00,
2013-01-02 22:34:00,46.7,44.0,30.14,North,5,1.0,3.0,90,0.00,,,0.00,weatherlink.com 1.10,2013-01-03 04:34:00,
2013-01-02 22:49:00,46.6,44.0,30.15,NNW,339,0.0,4.0,90,0.00,,,0.00,weatherlink.com 1.10,2013-01-03 04:49:00,
2013-01-02 23:05:00,46.5,44.0,30.13,NNE,15,1.0,4.0,90,0.00,,,0.00,weatherlink.com 1.10,2013-01-03 05:05:00,
2013-01-02 23:19:00,46.5,44.0,30.13,North,352,3.0,5.0,90,0.00,,,0.00,weatherlink.com 1.10,2013-01-03 05:19:00,
2013-01-02 23:34:00,46.4,44.0,30.14,West,281,4.0,6.0,90,0.00,,,0.00,weatherlink.com 1.10,2013-01-03 05:34:00,
2013-01-02 23:49:00,46.3,44.0,30.13,NW,321,0.0,4.0,91,0.00,,,0.00,weatherlink.com 1.10,2013-01-03 05:49:00,